sensor_id;sensor_type;location;lat;lon;timestamp;temperature;humidity
32476;DHT22;18929;48.008;10.882;2024-03-07T06:03:46;6.20;99.90
32476;DHT22;18929;48.008;10.882;2024-03-07T06:06:14;6.00;99.90
32476;DHT22;18929;48.008;10.882;2024-03-07T06:08:41;6.10;99.90
32476;DHT22;18929;48.008;10.882;2024-03-07T06:11:12;6.10;99.90
32476;DHT22;18929;48.008;10.882;2024-03-07T06:13:46;6.10;99.90
32476;DHT22;18929;48.008;10.882;2024-03-07T06:16:12;6.20;99.90
32476;DHT22;18929;48.008;10.882;2024-03-07T06:18:40;6.40;99.90
32476;DHT22;18929;48.008;10.882;2024-03-07T06:21:08;6.50;99.90
32476;DHT22;18929;48.008;10.882;2024-03-07T06:23:49;6.60;99.90
32476;DHT22;18929;48.008;10.882;2024-03-07T06:26:20;6.50;99.90
32476;DHT22;18929;48.008;10.882;2024-03-07T06:29:02;6.40;99.90
32476;DHT22;18929;48.008;10.882;2024-03-07T06:31:30;6.30;99.90
32476;DHT22;18929;48.008;10.882;2024-03-07T06:33:57;6.30;99.90
32476;DHT22;18929;48.008;10.882;2024-03-07T06:36:26;6.20;99.90
32476;DHT22;18929;48.008;10.882;2024-03-07T06:38:54;6.10;99.90
32476;DHT22;18929;48.008;10.882;2024-03-07T06:41:21;6.10;99.90
32476;DHT22;18929;48.008;10.882;2024-03-07T06:43:48;6.30;99.90
32476;DHT22;18929;48.008;10.882;2024-03-07T06:46:15;6.50;99.90
32476;DHT22;18929;48.008;10.882;2024-03-07T06:48:42;6.50;99.90
32476;DHT22;18929;48.008;10.882;2024-03-07T06:51:09;6.60;99.90
32476;DHT22;18929;48.008;10.882;2024-03-07T06:53:38;6.70;99.90
32476;DHT22;18929;48.008;10.882;2024-03-07T06:56:05;6.70;99.90
32476;DHT22;18929;48.008;10.882;2024-03-07T06:58:32;6.30;99.90
32476;DHT22;18929;48.008;10.882;2024-03-07T07:00:59;6.30;99.90
32476;DHT22;18929;48.008;10.882;2024-03-07T07:03:27;6.40;99.90
32476;DHT22;18929;48.008;10.882;2024-03-07T07:05:54;6.30;99.90
32476;DHT22;18929;48.008;10.882;2024-03-07T07:08:21;6.10;99.90
32476;DHT22;18929;48.008;10.882;2024-03-07T07:10:50;5.80;99.90
32476;DHT22;18929;48.008;10.882;2024-03-07T07:13:19;5.00;99.90
32476;DHT22;18929;48.008;10.882;2024-03-07T07:15:46;4.90;99.90
32476;DHT22;18929;48.008;10.882;2024-03-07T07:18:13;4.40;99.90
32476;DHT22;18929;48.008;10.882;2024-03-07T07:20:40;4.50;99.90
32476;DHT22;18929;48.008;10.882;2024-03-07T07:23:07;4.70;99.90
32476;DHT22;18929;48.008;10.882;2024-03-07T07:25:34;5.20;99.90
32476;DHT22;18929;48.008;10.882;2024-03-07T07:28:02;5.50;99.90
32476;DHT22;18929;48.008;10.882;2024-03-07T07:30:30;5.00;99.90
32476;DHT22;18929;48.008;10.882;2024-03-07T13:15:05;6.20;99.90
32476;DHT22;18929;48.008;10.882;2024-03-07T13:17:36;6.40;99.90
32476;DHT22;18929;48.008;10.882;2024-03-07T13:20:03;5.90;99.90
32476;DHT22;18929;48.008;10.882;2024-03-07T13:22:37;6.10;99.90
32476;DHT22;18929;48.008;10.882;2024-03-07T13:25:04;6.20;99.90
32476;DHT22;18929;48.008;10.882;2024-03-07T13:27:40;6.20;99.90
32476;DHT22;18929;48.008;10.882;2024-03-07T13:30:11;6.50;99.90
32476;DHT22;18929;48.008;10.882;2024-03-07T13:32:50;6.60;99.90
32476;DHT22;18929;48.008;10.882;2024-03-07T13:35:18;6.60;99.90
32476;DHT22;18929;48.008;10.882;2024-03-07T13:37:46;6.80;99.90
32476;DHT22;18929;48.008;10.882;2024-03-07T13:40:14;6.50;99.90
32476;DHT22;18929;48.008;10.882;2024-03-07T13:42:50;6.60;99.90
32476;DHT22;18929;48.008;10.882;2024-03-07T13:45:19;6.50;99.90
32476;DHT22;18929;48.008;10.882;2024-03-07T13:47:48;6.50;99.90
32476;DHT22;18929;48.008;10.882;2024-03-07T13:50:15;6.60;99.90
32476;DHT22;18929;48.008;10.882;2024-03-07T13:52:45;6.70;99.90
32476;DHT22;18929;48.008;10.882;2024-03-07T14:01:04;7.00;99.90
32476;DHT22;18929;48.008;10.882;2024-03-07T14:03:50;7.30;99.90
32476;DHT22;18929;48.008;10.882;2024-03-07T14:06:27;7.70;99.90
32476;DHT22;18929;48.008;10.882;2024-03-07T14:14:41;8.00;99.90
32476;DHT22;18929;48.008;10.882;2024-03-07T14:20:12;7.60;99.90
32476;DHT22;18929;48.008;10.882;2024-03-07T14:22:52;7.20;99.90
32476;DHT22;18929;48.008;10.882;2024-03-07T14:25:28;7.40;99.90
32476;DHT22;18929;48.008;10.882;2024-03-07T14:28:13;7.20;99.90
32476;DHT22;18929;48.008;10.882;2024-03-07T14:30:41;6.70;99.90
32476;DHT22;18929;48.008;10.882;2024-03-07T14:33:11;6.60;99.90
32476;DHT22;18929;48.008;10.882;2024-03-07T14:38:29;7.10;99.90
32476;DHT22;18929;48.008;10.882;2024-03-07T14:40:56;6.60;99.90
32476;DHT22;18929;48.008;10.882;2024-03-07T14:43:24;6.70;99.90
32476;DHT22;18929;48.008;10.882;2024-03-07T14:45:51;6.90;99.90
32476;DHT22;18929;48.008;10.882;2024-03-07T14:48:22;6.70;99.90
32476;DHT22;18929;48.008;10.882;2024-03-07T14:50:49;6.40;99.90
32476;DHT22;18929;48.008;10.882;2024-03-07T14:53:16;6.90;99.90
32476;DHT22;18929;48.008;10.882;2024-03-07T14:58:40;7.00;99.90
32476;DHT22;18929;48.008;10.882;2024-03-07T15:01:07;7.20;99.90
32476;DHT22;18929;48.008;10.882;2024-03-07T15:03:34;7.50;99.90
32476;DHT22;18929;48.008;10.882;2024-03-07T15:06:03;6.80;99.90
32476;DHT22;18929;48.008;10.882;2024-03-07T15:08:33;7.20;99.90
32476;DHT22;18929;48.008;10.882;2024-03-07T15:11:03;7.50;99.90
32476;DHT22;18929;48.008;10.882;2024-03-07T15:13:40;6.50;99.90
32476;DHT22;18929;48.008;10.882;2024-03-07T15:16:08;6.70;99.90
32476;DHT22;18929;48.008;10.882;2024-03-07T15:18:35;6.80;99.90
32476;DHT22;18929;48.008;10.882;2024-03-07T15:21:02;7.00;99.90
32476;DHT22;18929;48.008;10.882;2024-03-07T15:23:30;7.40;99.90
32476;DHT22;18929;48.008;10.882;2024-03-07T15:25:58;7.30;99.90
32476;DHT22;18929;48.008;10.882;2024-03-07T15:28:25;7.20;99.90
32476;DHT22;18929;48.008;10.882;2024-03-07T15:30:53;7.20;99.90
32476;DHT22;18929;48.008;10.882;2024-03-07T15:33:21;7.50;99.90
32476;DHT22;18929;48.008;10.882;2024-03-07T15:35:48;7.70;99.90
32476;DHT22;18929;48.008;10.882;2024-03-07T15:38:16;7.60;99.90
32476;DHT22;18929;48.008;10.882;2024-03-07T15:40:44;7.80;99.90
32476;DHT22;18929;48.008;10.882;2024-03-07T15:43:11;7.90;99.90
32476;DHT22;18929;48.008;10.882;2024-03-07T15:45:39;7.40;99.90
32476;DHT22;18929;48.008;10.882;2024-03-07T15:48:08;7.60;99.90
32476;DHT22;18929;48.008;10.882;2024-03-07T15:53:14;7.10;99.90
32476;DHT22;18929;48.008;10.882;2024-03-07T15:55:41;7.20;99.90
32476;DHT22;18929;48.008;10.882;2024-03-07T15:58:08;7.20;99.90
32476;DHT22;18929;48.008;10.882;2024-03-07T16:00:36;6.80;99.90
32476;DHT22;18929;48.008;10.882;2024-03-07T16:03:04;7.40;99.90
32476;DHT22;18929;48.008;10.882;2024-03-07T16:05:35;6.70;99.90
32476;DHT22;18929;48.008;10.882;2024-03-07T16:08:03;7.00;99.90
32476;DHT22;18929;48.008;10.882;2024-03-07T16:10:32;7.00;99.90
32476;DHT22;18929;48.008;10.882;2024-03-07T16:13:00;7.40;99.90
32476;DHT22;18929;48.008;10.882;2024-03-07T16:15:28;6.90;99.90
32476;DHT22;18929;48.008;10.882;2024-03-07T16:17:58;7.30;99.90
32476;DHT22;18929;48.008;10.882;2024-03-07T16:20:26;7.60;99.90
32476;DHT22;18929;48.008;10.882;2024-03-07T16:22:54;7.70;99.90
32476;DHT22;18929;48.008;10.882;2024-03-07T16:25:22;7.80;99.90
32476;DHT22;18929;48.008;10.882;2024-03-07T16:27:50;7.60;99.90
32476;DHT22;18929;48.008;10.882;2024-03-07T16:30:19;7.20;99.90
32476;DHT22;18929;48.008;10.882;2024-03-07T16:32:47;7.50;99.90
32476;DHT22;18929;48.008;10.882;2024-03-07T16:35:15;7.90;99.90
32476;DHT22;18929;48.008;10.882;2024-03-07T16:37:43;8.50;99.90
32476;DHT22;18929;48.008;10.882;2024-03-07T16:40:19;8.40;99.90
32476;DHT22;18929;48.008;10.882;2024-03-07T16:42:48;8.60;99.90
32476;DHT22;18929;48.008;10.882;2024-03-07T16:45:18;8.40;99.90
32476;DHT22;18929;48.008;10.882;2024-03-07T16:47:46;7.60;99.90
32476;DHT22;18929;48.008;10.882;2024-03-07T16:50:17;8.10;99.90
32476;DHT22;18929;48.008;10.882;2024-03-07T16:52:44;8.70;99.90
32476;DHT22;18929;48.008;10.882;2024-03-07T16:55:21;9.30;99.90
32476;DHT22;18929;48.008;10.882;2024-03-07T16:57:50;8.90;99.90
32476;DHT22;18929;48.008;10.882;2024-03-07T17:00:18;8.80;99.90
32476;DHT22;18929;48.008;10.882;2024-03-07T17:02:52;9.10;99.90
32476;DHT22;18929;48.008;10.882;2024-03-07T17:05:21;8.20;99.90
32476;DHT22;18929;48.008;10.882;2024-03-07T17:07:48;8.40;99.90
32476;DHT22;18929;48.008;10.882;2024-03-07T17:10:16;7.70;99.90
32476;DHT22;18929;48.008;10.882;2024-03-07T17:12:45;8.20;99.90
32476;DHT22;18929;48.008;10.882;2024-03-07T17:15:13;9.10;99.90
32476;DHT22;18929;48.008;10.882;2024-03-07T17:17:42;8.60;99.90
32476;DHT22;18929;48.008;10.882;2024-03-07T17:20:11;8.30;99.90
32476;DHT22;18929;48.008;10.882;2024-03-07T17:22:38;8.20;99.90
32476;DHT22;18929;48.008;10.882;2024-03-07T17:25:07;8.70;99.90
32476;DHT22;18929;48.008;10.882;2024-03-07T17:27:37;8.00;99.90
32476;DHT22;18929;48.008;10.882;2024-03-07T17:30:06;8.60;99.90
32476;DHT22;18929;48.008;10.882;2024-03-07T17:32:33;7.90;99.90
32476;DHT22;18929;48.008;10.882;2024-03-07T17:35:01;8.30;99.90
32476;DHT22;18929;48.008;10.882;2024-03-07T17:37:28;9.10;99.90
32476;DHT22;18929;48.008;10.882;2024-03-07T17:39:55;8.10;99.90
32476;DHT22;18929;48.008;10.882;2024-03-07T17:42:23;9.10;99.90
32476;DHT22;18929;48.008;10.882;2024-03-07T17:44:51;8.40;99.90
32476;DHT22;18929;48.008;10.882;2024-03-07T17:47:20;8.10;99.90
32476;DHT22;18929;48.008;10.882;2024-03-07T17:49:47;7.90;99.90
32476;DHT22;18929;48.008;10.882;2024-03-07T17:52:16;8.20;99.90
32476;DHT22;18929;48.008;10.882;2024-03-07T17:54:44;8.50;99.90
32476;DHT22;18929;48.008;10.882;2024-03-07T17:57:13;9.00;99.90
32476;DHT22;18929;48.008;10.882;2024-03-07T17:59:40;8.40;99.90
32476;DHT22;18929;48.008;10.882;2024-03-07T18:02:11;7.90;99.90
32476;DHT22;18929;48.008;10.882;2024-03-07T18:04:39;8.10;99.90
32476;DHT22;18929;48.008;10.882;2024-03-07T18:07:06;8.40;99.90
32476;DHT22;18929;48.008;10.882;2024-03-07T18:09:35;8.40;99.90
32476;DHT22;18929;48.008;10.882;2024-03-07T18:12:05;9.10;99.90
32476;DHT22;18929;48.008;10.882;2024-03-07T18:14:36;7.50;99.90
32476;DHT22;18929;48.008;10.882;2024-03-07T18:17:03;8.10;99.90
32476;DHT22;18929;48.008;10.882;2024-03-07T18:19:30;8.60;99.90
32476;DHT22;18929;48.008;10.882;2024-03-07T18:21:59;7.70;99.90
32476;DHT22;18929;48.008;10.882;2024-03-07T18:24:26;8.70;99.90
32476;DHT22;18929;48.008;10.882;2024-03-07T18:26:53;8.20;99.90
32476;DHT22;18929;48.008;10.882;2024-03-07T18:29:22;8.70;99.90
32476;DHT22;18929;48.008;10.882;2024-03-07T18:31:49;8.70;99.90
32476;DHT22;18929;48.008;10.882;2024-03-07T18:34:16;7.50;99.90
32476;DHT22;18929;48.008;10.882;2024-03-07T18:36:44;8.30;99.90
32476;DHT22;18929;48.008;10.882;2024-03-07T18:39:12;7.50;99.90
32476;DHT22;18929;48.008;10.882;2024-03-07T18:41:52;8.30;99.90
32476;DHT22;18929;48.008;10.882;2024-03-07T18:44:19;7.80;99.90
32476;DHT22;18929;48.008;10.882;2024-03-07T18:46:47;7.70;99.90
32476;DHT22;18929;48.008;10.882;2024-03-07T18:52:03;7.00;99.90
32476;DHT22;18929;48.008;10.882;2024-03-07T18:54:33;7.50;99.90
32476;DHT22;18929;48.008;10.882;2024-03-07T18:57:00;7.40;99.90
32476;DHT22;18929;48.008;10.882;2024-03-07T18:59:28;7.00;99.90
32476;DHT22;18929;48.008;10.882;2024-03-07T19:01:57;7.70;99.90
32476;DHT22;18929;48.008;10.882;2024-03-07T19:04:24;7.80;99.90
32476;DHT22;18929;48.008;10.882;2024-03-07T19:06:55;8.00;99.90
32476;DHT22;18929;48.008;10.882;2024-03-07T19:09:23;8.40;99.90
32476;DHT22;18929;48.008;10.882;2024-03-07T19:14:48;8.60;99.90
32476;DHT22;18929;48.008;10.882;2024-03-07T19:17:17;8.70;99.90
32476;DHT22;18929;48.008;10.882;2024-03-07T19:19:44;8.80;99.90
32476;DHT22;18929;48.008;10.882;2024-03-07T19:22:11;8.70;99.90
32476;DHT22;18929;48.008;10.882;2024-03-07T19:24:42;8.30;99.90
32476;DHT22;18929;48.008;10.882;2024-03-07T19:27:09;8.60;99.90
32476;DHT22;18929;48.008;10.882;2024-03-07T19:29:37;8.80;99.90
32476;DHT22;18929;48.008;10.882;2024-03-07T19:32:07;8.80;99.90
32476;DHT22;18929;48.008;10.882;2024-03-07T19:34:34;8.80;99.90
32476;DHT22;18929;48.008;10.882;2024-03-07T19:37:01;8.70;99.90
32476;DHT22;18929;48.008;10.882;2024-03-07T19:39:28;8.70;99.90
32476;DHT22;18929;48.008;10.882;2024-03-07T19:41:56;8.40;99.90
32476;DHT22;18929;48.008;10.882;2024-03-07T19:44:23;8.30;99.90
32476;DHT22;18929;48.008;10.882;2024-03-07T19:46:50;8.30;99.90
32476;DHT22;18929;48.008;10.882;2024-03-07T19:49:20;8.30;99.90
32476;DHT22;18929;48.008;10.882;2024-03-07T19:51:47;8.30;99.90
32476;DHT22;18929;48.008;10.882;2024-03-07T19:54:15;8.30;99.90
32476;DHT22;18929;48.008;10.882;2024-03-07T19:59:15;8.20;99.90
32476;DHT22;18929;48.008;10.882;2024-03-07T20:01:42;8.20;99.90
32476;DHT22;18929;48.008;10.882;2024-03-07T20:07:08;8.10;99.90
32476;DHT22;18929;48.008;10.882;2024-03-07T20:09:36;8.00;99.90
32476;DHT22;18929;48.008;10.882;2024-03-07T20:12:03;7.20;99.90
32476;DHT22;18929;48.008;10.882;2024-03-07T20:14:31;7.70;99.90
32476;DHT22;18929;48.008;10.882;2024-03-07T20:16:59;7.80;99.90
32476;DHT22;18929;48.008;10.882;2024-03-07T20:19:26;7.90;99.90
32476;DHT22;18929;48.008;10.882;2024-03-07T20:21:53;7.80;99.90
32476;DHT22;18929;48.008;10.882;2024-03-07T20:24:22;7.90;99.90
32476;DHT22;18929;48.008;10.882;2024-03-07T20:26:49;7.60;99.90
32476;DHT22;18929;48.008;10.882;2024-03-07T20:29:18;7.70;99.90
32476;DHT22;18929;48.008;10.882;2024-03-07T20:31:45;7.80;99.90
32476;DHT22;18929;48.008;10.882;2024-03-07T20:34:12;7.40;99.90
32476;DHT22;18929;48.008;10.882;2024-03-07T20:36:39;7.40;99.90
32476;DHT22;18929;48.008;10.882;2024-03-07T20:41:42;7.00;99.90
32476;DHT22;18929;48.008;10.882;2024-03-07T20:44:15;7.10;99.90
32476;DHT22;18929;48.008;10.882;2024-03-07T20:46:42;7.30;99.90
32476;DHT22;18929;48.008;10.882;2024-03-07T20:49:09;7.30;99.90
32476;DHT22;18929;48.008;10.882;2024-03-07T20:51:37;7.30;99.90
32476;DHT22;18929;48.008;10.882;2024-03-07T20:54:05;7.20;99.90
32476;DHT22;18929;48.008;10.882;2024-03-07T20:56:31;7.00;99.90
32476;DHT22;18929;48.008;10.882;2024-03-07T20:59:01;7.20;99.90
32476;DHT22;18929;48.008;10.882;2024-03-07T21:01:32;7.20;99.90
32476;DHT22;18929;48.008;10.882;2024-03-07T21:06:31;7.10;99.90
32476;DHT22;18929;48.008;10.882;2024-03-07T21:08:58;6.30;99.90
32476;DHT22;18929;48.008;10.882;2024-03-07T21:11:26;6.60;99.90
32476;DHT22;18929;48.008;10.882;2024-03-07T21:13:53;6.80;99.90
32476;DHT22;18929;48.008;10.882;2024-03-07T21:16:22;6.90;99.90
32476;DHT22;18929;48.008;10.882;2024-03-07T21:18:51;6.90;99.90
32476;DHT22;18929;48.008;10.882;2024-03-07T21:21:18;6.80;99.90
32476;DHT22;18929;48.008;10.882;2024-03-07T21:23:45;6.60;99.90
32476;DHT22;18929;48.008;10.882;2024-03-07T21:26:12;6.00;99.90
32476;DHT22;18929;48.008;10.882;2024-03-07T21:28:42;6.60;99.90
32476;DHT22;18929;48.008;10.882;2024-03-07T21:31:09;6.60;99.90
32476;DHT22;18929;48.008;10.882;2024-03-07T21:33:37;6.70;99.90
32476;DHT22;18929;48.008;10.882;2024-03-07T21:36:05;6.80;99.90
32476;DHT22;18929;48.008;10.882;2024-03-07T21:38:32;6.60;99.90
32476;DHT22;18929;48.008;10.882;2024-03-07T21:41:00;6.70;99.90
32476;DHT22;18929;48.008;10.882;2024-03-07T21:43:27;6.70;99.90
32476;DHT22;18929;48.008;10.882;2024-03-07T21:45:55;6.70;99.90
32476;DHT22;18929;48.008;10.882;2024-03-07T21:48:22;6.10;99.90
32476;DHT22;18929;48.008;10.882;2024-03-07T21:50:51;6.50;99.90
32476;DHT22;18929;48.008;10.882;2024-03-07T21:53:18;6.40;99.90
32476;DHT22;18929;48.008;10.882;2024-03-07T21:55:45;6.50;99.90
32476;DHT22;18929;48.008;10.882;2024-03-07T21:58:12;6.20;99.90
32476;DHT22;18929;48.008;10.882;2024-03-07T22:00:39;6.30;99.90
32476;DHT22;18929;48.008;10.882;2024-03-07T22:03:06;6.60;99.90
32476;DHT22;18929;48.008;10.882;2024-03-07T22:05:34;6.50;99.90
32476;DHT22;18929;48.008;10.882;2024-03-07T22:08:03;6.50;99.90
32476;DHT22;18929;48.008;10.882;2024-03-07T22:10:30;5.80;99.90
32476;DHT22;18929;48.008;10.882;2024-03-07T22:12:57;4.70;99.90
32476;DHT22;18929;48.008;10.882;2024-03-07T22:15:24;5.30;99.90
32476;DHT22;18929;48.008;10.882;2024-03-07T22:17:52;5.90;99.90
32476;DHT22;18929;48.008;10.882;2024-03-07T22:20:19;6.10;99.90
32476;DHT22;18929;48.008;10.882;2024-03-07T22:22:47;6.10;99.90
32476;DHT22;18929;48.008;10.882;2024-03-07T22:25:16;6.20;99.90
32476;DHT22;18929;48.008;10.882;2024-03-07T22:27:45;6.00;99.90
32476;DHT22;18929;48.008;10.882;2024-03-07T22:30:13;6.00;99.90
32476;DHT22;18929;48.008;10.882;2024-03-07T22:32:42;6.00;99.90
32476;DHT22;18929;48.008;10.882;2024-03-07T22:35:09;6.10;99.90
32476;DHT22;18929;48.008;10.882;2024-03-07T22:37:36;5.90;99.90
32476;DHT22;18929;48.008;10.882;2024-03-07T22:40:04;6.00;99.90
32476;DHT22;18929;48.008;10.882;2024-03-07T22:42:34;5.90;99.90
32476;DHT22;18929;48.008;10.882;2024-03-07T22:45:01;4.80;99.90
32476;DHT22;18929;48.008;10.882;2024-03-07T22:47:30;4.00;99.90
32476;DHT22;18929;48.008;10.882;2024-03-07T22:49:57;4.30;99.90
32476;DHT22;18929;48.008;10.882;2024-03-07T22:52:24;4.20;99.90
32476;DHT22;18929;48.008;10.882;2024-03-07T22:54:51;4.90;99.90
32476;DHT22;18929;48.008;10.882;2024-03-07T22:57:18;4.60;99.90
32476;DHT22;18929;48.008;10.882;2024-03-07T22:59:47;4.10;99.90
32476;DHT22;18929;48.008;10.882;2024-03-07T23:02:15;5.00;99.90
32476;DHT22;18929;48.008;10.882;2024-03-07T23:04:42;5.30;99.90
32476;DHT22;18929;48.008;10.882;2024-03-07T23:07:09;5.40;99.90
32476;DHT22;18929;48.008;10.882;2024-03-07T23:09:37;5.50;99.90
32476;DHT22;18929;48.008;10.882;2024-03-07T23:14:36;5.30;99.90
32476;DHT22;18929;48.008;10.882;2024-03-07T23:17:05;5.00;99.90
32476;DHT22;18929;48.008;10.882;2024-03-07T23:19:34;5.30;99.90
32476;DHT22;18929;48.008;10.882;2024-03-07T23:22:02;5.10;99.90
32476;DHT22;18929;48.008;10.882;2024-03-07T23:24:33;5.30;99.90
32476;DHT22;18929;48.008;10.882;2024-03-07T23:27:00;5.30;99.90
32476;DHT22;18929;48.008;10.882;2024-03-07T23:29:29;5.30;99.90
32476;DHT22;18929;48.008;10.882;2024-03-07T23:31:55;5.20;99.90
32476;DHT22;18929;48.008;10.882;2024-03-07T23:34:24;5.20;99.90
32476;DHT22;18929;48.008;10.882;2024-03-07T23:36:51;4.10;99.90
32476;DHT22;18929;48.008;10.882;2024-03-07T23:39:18;4.50;99.90
32476;DHT22;18929;48.008;10.882;2024-03-07T23:44:17;5.00;99.90
32476;DHT22;18929;48.008;10.882;2024-03-07T23:46:44;5.10;99.90
32476;DHT22;18929;48.008;10.882;2024-03-07T23:49:11;4.80;99.90
32476;DHT22;18929;48.008;10.882;2024-03-07T23:51:45;4.70;99.90
32476;DHT22;18929;48.008;10.882;2024-03-07T23:54:12;4.60;99.90
32476;DHT22;18929;48.008;10.882;2024-03-07T23:56:43;5.10;99.90
32476;DHT22;18929;48.008;10.882;2024-03-07T23:59:10;5.10;99.90
